Weather observations for the past three days for
Nelson Lagoon
| Date | Time (akdt) | Wind (kph) | Vis. (km) | Weather | Sky Cond. | Temperature (ºC) | Relative Humidity | Wind Chill (°C) | Heat Index (°C) | Pressure | Precipitation (cm) | ||||||
|---|---|---|---|---|---|---|---|---|---|---|---|---|---|---|---|---|---|
| Air | Dwpt | 6 hour | altimeter (cm) | sea level (mb) | 1 hr | 3 hr | 6 hr | ||||||||||
| Max. | Min. | ||||||||||||||||
| 07 | 12:56 | N 15 | 16.09 | Overcast | OVC005 | 0 | -1.7 | 88% | -4 | 76.17 | 1015.6 | ||||||
| 07 | 11:56 | N 15 | 16.09 | Overcast | OVC005 | 0 | -1.7 | 88% | -4 | 76.2 | 1015.8 | ||||||
| 07 | 10:56 | N 13 | 16.09 | Overcast | FEW007 OVC012 | -0.6 | -1.7 | 92% | -4 | 76.23 | 1016.2 | ||||||
| 07 | 09:56 | N 15 | 16.09 | Overcast | OVC006 | -0.6 | -2.2 | -0.6 | -1.7 | 89% | -5 | 76.25 | 1016.4 | ||||
| 07 | 08:56 | NE 15 | 16.09 | Overcast | OVC006 | -1.1 | -2.8 | 88% | -5 | 76.28 | 1016.7 | ||||||
| 07 | 07:56 | N 11 | 16.09 | Overcast | OVC006 | -1.7 | -2.8 | 92% | -5 | 76.28 | 1016.7 | ||||||
| 07 | 06:56 | N 13 | 16.09 | Overcast | OVC006 | -1.7 | -2.8 | 92% | -6 | 76.28 | 1016.8 | ||||||
| 07 | 05:56 | N 7 | 16.09 | Overcast | OVC006 | -1.7 | -3.3 | 89% | -4 | 76.3 | 1017.0 | ||||||
| 07 | 04:56 | N 9 | 16.09 | Overcast | OVC008 | -1.7 | -3.3 | 89% | -5 | 76.3 | 1017.3 | ||||||
| 07 | 03:56 | NE 9 | 16.09 | Overcast | OVC008 | -1.7 | -3.3 | -1.1 | -2.2 | 89% | -5 | 76.35 | 1017.9 | ||||
| 07 | 02:56 | N 11 | 16.09 | Overcast | OVC008 | -1.1 | -2.8 | 88% | -5 | 76.4 | 1018.4 | ||||||
| 07 | 01:56 | NE 15 | 16.09 | Overcast | OVC010 | -1.7 | -3.3 | 89% | -6 | 76.4 | 1018.5 | ||||||
| 07 | 00:56 | NE 17 | 16.09 | Overcast | OVC010 | -1.7 | -3.9 | 85% | -6 | 76.4 | 1018.6 | ||||||
| 06 | 23:56 | NE 15 | 16.09 | Fair | CLR | -2.2 | -4.4 | 85% | -7 | 76.4 | 1018.4 | ||||||
| 06 | 22:56 | N 17 | 16.09 | A Few Clouds | FEW010 | -2.2 | -5 | 81% | -7 | 76.4 | 1018.6 | ||||||
| 06 | 21:56 | N 20 | 16.09 | Fair | CLR | -1.7 | -4.4 | 1.1 | -1.7 | 82% | -7 | 76.4 | 1018.5 | ||||
| 06 | 20:56 | N 22 | 16.09 | Fair | CLR | -0.6 | -3.9 | 79% | -6 | 76.4 | 1018.6 | ||||||
| 06 | 19:56 | N 20 | 16.09 | Fair | CLR | 0 | -3.9 | 75% | -5 | 76.4 | 1018.6 | ||||||
| 06 | 18:56 | N 22 | 16.09 | A Few Clouds | FEW011 | 0.6 | -3.9 | 72% | -4 | 76.43 | 1018.7 | ||||||
| 06 | 17:56 | N 19 | 16.09 | Fair | CLR | 0.6 | -3.9 | 72% | -4 | 76.45 | 1019.1 | ||||||
| 06 | 16:56 | N 19 | 16.09 | Fair | CLR | 0.6 | -3.9 | 72% | -4 | 76.45 | 1019.4 | ||||||
| 06 | 15:56 | N 17 | 16.09 | A Few Clouds | FEW016 | 1.1 | -3.9 | 1.7 | -2.2 | 70% | -3 | 76.5 | 1019.9 | ||||
| 06 | 14:56 | N 15 | 16.09 | Fair | CLR | 1.1 | -3.9 | 70% | -3 | 76.53 | 1020.1 | ||||||
| 06 | 13:56 | N 11 | 16.09 | Partly Cloudy | SCT013 | 0.6 | -3.9 | 72% | -2 | 76.56 | 1020.5 | ||||||
| 06 | 12:56 | N 15 | 16.09 | Mostly Cloudy | BKN015 | 1.1 | -3.3 | 73% | -3 | 76.56 | 1020.5 | ||||||
| 06 | 11:56 | N 7 | 16.09 | Overcast | OVC015 | -0.6 | -3.9 | 79% | -3 | 76.56 | 1020.5 | ||||||
| 06 | 10:56 | NE 6 | 16.09 | Overcast | OVC015 | -1.1 | -4.4 | 79% | 76.56 | 1020.7 | |||||||
| 06 | 09:56 | N 6 | 16.09 | Overcast | OVC015 | -2.2 | -5 | -2.2 | -3.3 | 81% | 76.58 | 1020.9 | |||||
| 06 | 08:56 | E 6 | 16.09 | Overcast | OVC015 | -2.8 | -5.6 | 81% | 76.58 | 1020.8 | |||||||
| 06 | 07:56 | NE 7 | 16.09 | Overcast | OVC015 | -2.8 | -5.6 | 81% | -5 | 76.56 | 1020.5 | ||||||
| 06 | 06:56 | N 7 | 16.09 | Overcast | OVC015 | -2.8 | -5.6 | 81% | -5 | 76.56 | 1020.6 | ||||||
| 06 | 05:56 | Vrbl 6 | 16.09 | Overcast | OVC015 | -3.3 | -5.6 | 84% | 76.56 | 1020.5 | |||||||
| 06 | 04:56 | N 9 | 16.09 | Overcast | OVC015 | -2.8 | -5 | 85% | -6 | 76.56 | 1020.4 | ||||||
| 06 | 03:56 | NW 11 | 16.09 | Overcast | OVC015 | -2.2 | -5 | -1.7 | -2.8 | 81% | -6 | 76.56 | 1020.5 | ||||
| 06 | 02:56 | W 6 | 16.09 | Overcast | OVC015 | -2.2 | -5 | 81% | 76.58 | 1021.1 | |||||||
| 06 | 01:56 | W 11 | 16.09 | Overcast | OVC017 | -2.2 | -4.4 | 85% | -6 | 76.61 | 1021.3 | ||||||
| 06 | 00:56 | Vrbl 6 | 16.09 | Overcast | OVC013 | -2.2 | -4.4 | 85% | 76.58 | 1020.9 | |||||||
| 05 | 23:56 | W 19 | 16.09 | Overcast | OVC013 | -2.2 | -4.4 | 85% | -7 | 76.56 | 1020.6 | ||||||
| 05 | 22:56 | W 17 | 16.09 | Overcast | OVC013 | -1.7 | -3.9 | 85% | -6 | 76.53 | 1020.3 | ||||||
| 05 | 21:56 | W 28 | 16.09 | Overcast | OVC013 | -1.7 | -3.9 | 0 | -1.7 | 85% | -8 | 76.5 | 1020.0 | ||||
| 05 | 20:56 | W 19 | 16.09 | Overcast | OVC013 | -1.1 | -3.3 | 85% | -6 | 76.48 | 1019.4 | ||||||
| 05 | 19:56 | NW 22 | 16.09 | Overcast | OVC013 | -1.1 | -2.8 | 88% | -7 | 76.45 | 1019.3 | ||||||
| 05 | 18:56 | NW 20 | 16.09 | Overcast | OVC013 | -0.6 | -2.8 | 85% | -6 | 76.43 | 1018.8 | ||||||
| 05 | 17:56 | NW 26 | 16.09 | Overcast | OVC015 | 0 | -2.2 | 85% | -6 | 76.38 | 1018.1 | ||||||
| 05 | 16:56 | W 30 | 16.09 | Overcast | OVC015 | 0 | -1.7 | 88% | -6 | 76.35 | 1017.7 | ||||||
| 05 | 15:56 | W 30 | 16.09 | Overcast | OVC015 | 0 | -1.7 | 0 | -1.1 | 88% | -6 | 76.33 | 1017.6 | ||||
| 05 | 14:56 | W 28 | 16.09 | Overcast | OVC016 | 0 | -2.2 | 85% | -6 | 76.3 | 1017.2 | ||||||
| 05 | 13:56 | W 31 | 14.48 | Overcast | OVC014 | 0 | -2.2 | 85% | -6 | 76.28 | 1016.9 | ||||||
| 05 | 12:56 | W 26 | 16.09 | Overcast | OVC016 | -0.6 | -2.8 | 85% | -6 | 76.25 | 1016.3 | ||||||
| 05 | 11:56 | W 31 | 16.09 | Overcast | OVC016 | -1.1 | -2.8 | 88% | -8 | 76.2 | 1015.9 | ||||||
| 05 | 10:56 | W 30 | 16.09 | Overcast | OVC014 | -1.1 | -2.2 | 92% | -7 | 76.15 | 1015.1 | ||||||
| 05 | 09:56 | W 30 | 14.48 | Overcast | OVC012 | -1.1 | -2.2 | -0.6 | -1.7 | 92% | -7 | 76.1 | 1014.6 | ||||
| 05 | 08:56 | W 37 | 16.09 | Overcast and Breezy | OVC010 | -1.7 | -2.8 | 92% | -9 | 76.05 | 1013.9 | ||||||
| 05 | 07:56 | NW 37 | 14.48 | Overcast and Breezy | OVC010 | -1.7 | -2.2 | 96% | -9 | 75.97 | 1012.8 | ||||||
| 05 | 06:56 | W 41 | 11.27 | Overcast and Breezy | OVC010 | -1.1 | -1.7 | 96% | -8 | 75.9 | 1011.8 | ||||||
| 05 | 05:56 | W 46 | 14.48 | Overcast and Windy | OVC012 | -1.1 | -1.7 | 96% | -9 | 75.82 | 1010.8 | ||||||
| 05 | 04:56 | W 43 G 50 | 14.48 | Overcast and Windy | OVC012 | -0.6 | -1.1 | 96% | -8 | 75.74 | 1009.7 | ||||||
| 05 | 03:56 | NW 43 | 14.48 | Overcast and Windy | OVC010 | -0.6 | -1.1 | 0 | -0.6 | 96% | -8 | 75.67 | 1008.5 | 0.03 | |||
| 05 | 02:56 | NW 44 G 54 | 8.05 | Unknown Precip Fog/Mist and Windy | OVC006 | -0.6 | -1.1 | 96% | -8 | 75.59 | 1007.6 | 0.03 | |||||
| 05 | 01:56 | NW 43 | 9.66 | Unknown Precip Fog/Mist and Windy | OVC006 | -0.6 | -0.6 | 100% | -8 | 75.54 | 1006.9 | ||||||
| 05 | 00:56 | NW 41 | 11.27 | Overcast and Breezy | OVC004 | 0 | -0.6 | 96% | -7 | 75.46 | 1006.1 | ||||||
| 04 | 23:56 | NW 39 | 8.05 | Unknown Precip Fog/Mist and Breezy | OVC004 | 0 | -0.6 | 96% | -7 | 75.41 | 1005.5 | ||||||
| 04 | 22:56 | NW 37 | 6.44 | Unknown Precip Fog/Mist and Breezy | OVC004 | 0 | -0.6 | 96% | -7 | 75.39 | 1004.8 | ||||||
| 04 | 21:56 | NW 37 | 8.05 | Unknown Precip Fog/Mist and Breezy | OVC004 | 0 | -0.6 | 0.6 | -0.6 | 96% | -7 | 75.31 | 1004.1 | ||||
| 04 | 20:56 | NW 37 | 4.83 | Unknown Precip Fog/Mist and Breezy | OVC004 | -0.6 | -0.6 | 100% | -7 | 75.29 | 1003.7 | ||||||
| 04 | 19:56 | NW 35 | 4.83 | Fog/Mist and Breezy | OVC004 | 0 | -0.6 | 96% | -7 | 75.26 | 1003.4 | ||||||
| 04 | 18:56 | NW 37 | 4.83 | Fog/Mist and Breezy | OVC004 | 0 | -0.6 | 96% | -7 | 75.23 | 1002.9 | ||||||
| 04 | 17:56 | NW 35 | 4.83 | Unknown Precip Fog/Mist and Breezy | OVC004 | 0 | -0.6 | 96% | -7 | 75.21 | 1002.5 | ||||||
| 04 | 15:56 | NW 39 | 9.66 | Fog/Mist and Breezy | OVC004 | 0.6 | 0 | 0.6 | -0.6 | 96% | -6 | 75.18 | 1002.3 | 0.03 | 0.15 | ||
| 04 | 14:56 | NW 37 | 11.27 | Unknown Precip and Breezy | OVC004 | 0 | 0 | 100% | -7 | 75.21 | 1002.5 | 0.03 | |||||
| 04 | 13:56 | NW 37 | 11.27 | Unknown Precip and Breezy | OVC004 | 0 | -0.6 | 96% | -7 | 75.21 | 1002.6 | 0.03 | |||||
| Date | Time (akdt) | Wind (kph) | Vis. (km) | Weather | Sky Cond. | Air | Dwpt | Max. | Min. | Relative Humidity | Wind Chill (°C) | Heat Index (°C) | altimeter (cm) | sea level (mb) | 1 hr | 3 hr | 6 hr |
| 6 hour | |||||||||||||||||
| Temperature (ºC) | Pressure | Precipitation (cm) | |||||||||||||||